sensor_id;sensor_type;location;lat;lon;timestamp;temperature;humidity
22532;DHT22;11432;46.924;7.114;2023-06-22T00:01:53;20.20;99.90
22532;DHT22;11432;46.924;7.114;2023-06-22T00:04:18;20.30;99.90
22532;DHT22;11432;46.924;7.114;2023-06-22T00:06:44;20.30;99.90
22532;DHT22;11432;46.924;7.114;2023-06-22T00:09:10;20.30;99.90
22532;DHT22;11432;46.924;7.114;2023-06-22T00:11:36;20.40;99.90
22532;DHT22;11432;46.924;7.114;2023-06-22T00:14:03;20.40;99.90
22532;DHT22;11432;46.924;7.114;2023-06-22T00:16:28;20.40;99.90
22532;DHT22;11432;46.924;7.114;2023-06-22T00:18:54;20.30;99.90
22532;DHT22;11432;46.924;7.114;2023-06-22T00:21:19;20.20;99.90
22532;DHT22;11432;46.924;7.114;2023-06-22T00:23:46;20.20;99.90
22532;DHT22;11432;46.924;7.114;2023-06-22T00:26:13;20.10;99.90
22532;DHT22;11432;46.924;7.114;2023-06-22T00:28:39;20.00;99.90
22532;DHT22;11432;46.924;7.114;2023-06-22T00:31:04;20.00;99.90
22532;DHT22;11432;46.924;7.114;2023-06-22T00:33:30;20.00;99.90
22532;DHT22;11432;46.924;7.114;2023-06-22T00:35:56;19.90;99.90
22532;DHT22;11432;46.924;7.114;2023-06-22T00:38:22;19.90;99.90
22532;DHT22;11432;46.924;7.114;2023-06-22T00:40:48;19.90;99.90
22532;DHT22;11432;46.924;7.114;2023-06-22T00:43:14;19.80;99.90
22532;DHT22;11432;46.924;7.114;2023-06-22T00:45:39;19.80;99.90
22532;DHT22;11432;46.924;7.114;2023-06-22T00:48:06;19.80;99.90
22532;DHT22;11432;46.924;7.114;2023-06-22T00:50:33;19.80;99.90
22532;DHT22;11432;46.924;7.114;2023-06-22T00:53:07;19.80;99.90
22532;DHT22;11432;46.924;7.114;2023-06-22T00:55:44;19.80;99.90
22532;DHT22;11432;46.924;7.114;2023-06-22T00:58:11;19.70;99.90
22532;DHT22;11432;46.924;7.114;2023-06-22T01:00:37;19.70;99.90
22532;DHT22;11432;46.924;7.114;2023-06-22T01:03:03;19.60;99.90
22532;DHT22;11432;46.924;7.114;2023-06-22T01:05:31;19.70;99.90
22532;DHT22;11432;46.924;7.114;2023-06-22T01:10:50;19.90;99.90
22532;DHT22;11432;46.924;7.114;2023-06-22T01:13:47;19.80;99.90
22532;DHT22;11432;46.924;7.114;2023-06-22T01:16:22;19.80;99.90
22532;DHT22;11432;46.924;7.114;2023-06-22T01:18:52;19.70;99.90
22532;DHT22;11432;46.924;7.114;2023-06-22T01:21:21;19.60;99.90
22532;DHT22;11432;46.924;7.114;2023-06-22T01:24:04;19.60;99.90
22532;DHT22;11432;46.924;7.114;2023-06-22T01:29:23;19.60;99.90
22532;DHT22;11432;46.924;7.114;2023-06-22T01:31:50;19.60;99.90
22532;DHT22;11432;46.924;7.114;2023-06-22T01:34:17;19.60;99.90
22532;DHT22;11432;46.924;7.114;2023-06-22T01:36:44;19.50;99.90
22532;DHT22;11432;46.924;7.114;2023-06-22T01:39:11;19.50;99.90
22532;DHT22;11432;46.924;7.114;2023-06-22T01:41:38;19.50;99.90
22532;DHT22;11432;46.924;7.114;2023-06-22T01:44:05;19.40;99.90
22532;DHT22;11432;46.924;7.114;2023-06-22T01:46:35;19.40;99.90
22532;DHT22;11432;46.924;7.114;2023-06-22T01:49:02;19.40;99.90
22532;DHT22;11432;46.924;7.114;2023-06-22T01:51:29;19.40;99.90
22532;DHT22;11432;46.924;7.114;2023-06-22T01:53:55;19.30;99.90
22532;DHT22;11432;46.924;7.114;2023-06-22T01:56:21;19.30;99.90
22532;DHT22;11432;46.924;7.114;2023-06-22T01:59:19;19.30;99.90
22532;DHT22;11432;46.924;7.114;2023-06-22T02:02:04;19.30;99.90
22532;DHT22;11432;46.924;7.114;2023-06-22T02:05:03;19.30;99.90
22532;DHT22;11432;46.924;7.114;2023-06-22T02:07:31;19.30;99.90
22532;DHT22;11432;46.924;7.114;2023-06-22T02:09:58;19.30;99.90
22532;DHT22;11432;46.924;7.114;2023-06-22T02:12:25;19.20;99.90
22532;DHT22;11432;46.924;7.114;2023-06-22T02:14:53;19.20;99.90
22532;DHT22;11432;46.924;7.114;2023-06-22T02:17:19;19.20;99.90
22532;DHT22;11432;46.924;7.114;2023-06-22T02:19:45;19.20;99.90
22532;DHT22;11432;46.924;7.114;2023-06-22T02:22:11;19.30;99.90
22532;DHT22;11432;46.924;7.114;2023-06-22T02:24:38;19.30;99.90
22532;DHT22;11432;46.924;7.114;2023-06-22T02:27:04;19.20;99.90
22532;DHT22;11432;46.924;7.114;2023-06-22T02:29:31;19.20;99.90
22532;DHT22;11432;46.924;7.114;2023-06-22T02:31:56;19.20;99.90
22532;DHT22;11432;46.924;7.114;2023-06-22T02:34:22;19.10;99.90
22532;DHT22;11432;46.924;7.114;2023-06-22T02:36:49;19.10;99.90
22532;DHT22;11432;46.924;7.114;2023-06-22T02:39:18;19.10;99.90
22532;DHT22;11432;46.924;7.114;2023-06-22T02:41:44;19.20;99.90
22532;DHT22;11432;46.924;7.114;2023-06-22T02:44:09;19.20;99.90
22532;DHT22;11432;46.924;7.114;2023-06-22T02:46:35;19.20;99.90
22532;DHT22;11432;46.924;7.114;2023-06-22T02:49:01;19.20;99.90
22532;DHT22;11432;46.924;7.114;2023-06-22T02:51:27;19.20;99.90
22532;DHT22;11432;46.924;7.114;2023-06-22T02:53:52;19.10;99.90
22532;DHT22;11432;46.924;7.114;2023-06-22T02:56:22;19.10;99.90
22532;DHT22;11432;46.924;7.114;2023-06-22T02:58:51;19.10;99.90
22532;DHT22;11432;46.924;7.114;2023-06-22T03:01:16;19.10;99.90
22532;DHT22;11432;46.924;7.114;2023-06-22T03:03:42;19.00;99.90
22532;DHT22;11432;46.924;7.114;2023-06-22T03:06:07;19.00;99.90
22532;DHT22;11432;46.924;7.114;2023-06-22T03:08:33;19.00;99.90
22532;DHT22;11432;46.924;7.114;2023-06-22T03:10:59;19.10;99.90
22532;DHT22;11432;46.924;7.114;2023-06-22T03:13:25;19.00;99.90
22532;DHT22;11432;46.924;7.114;2023-06-22T03:15:50;19.00;99.90
22532;DHT22;11432;46.924;7.114;2023-06-22T03:18:16;19.00;99.90
22532;DHT22;11432;46.924;7.114;2023-06-22T03:20:42;19.10;99.90
22532;DHT22;11432;46.924;7.114;2023-06-22T03:23:07;19.00;99.90
22532;DHT22;11432;46.924;7.114;2023-06-22T03:25:33;18.90;99.90
22532;DHT22;11432;46.924;7.114;2023-06-22T03:27:59;18.90;99.90
22532;DHT22;11432;46.924;7.114;2023-06-22T03:30:26;18.90;99.90
22532;DHT22;11432;46.924;7.114;2023-06-22T03:32:51;18.80;99.90
22532;DHT22;11432;46.924;7.114;2023-06-22T03:35:17;18.60;99.90
22532;DHT22;11432;46.924;7.114;2023-06-22T03:37:43;18.60;99.90
22532;DHT22;11432;46.924;7.114;2023-06-22T03:40:08;18.50;99.90
22532;DHT22;11432;46.924;7.114;2023-06-22T03:42:34;18.50;99.90
22532;DHT22;11432;46.924;7.114;2023-06-22T03:45:03;18.60;99.90
22532;DHT22;11432;46.924;7.114;2023-06-22T03:47:29;18.60;99.90
22532;DHT22;11432;46.924;7.114;2023-06-22T03:49:55;18.60;99.90
22532;DHT22;11432;46.924;7.114;2023-06-22T03:52:21;18.70;99.90
22532;DHT22;11432;46.924;7.114;2023-06-22T03:54:48;18.70;99.90
22532;DHT22;11432;46.924;7.114;2023-06-22T03:57:13;18.60;99.90
22532;DHT22;11432;46.924;7.114;2023-06-22T03:59:39;18.50;99.90
22532;DHT22;11432;46.924;7.114;2023-06-22T04:02:04;18.50;99.90
22532;DHT22;11432;46.924;7.114;2023-06-22T04:04:30;18.60;99.90
22532;DHT22;11432;46.924;7.114;2023-06-22T04:06:56;18.50;99.90
22532;DHT22;11432;46.924;7.114;2023-06-22T04:09:21;18.70;99.90
22532;DHT22;11432;46.924;7.114;2023-06-22T04:11:47;18.70;99.90
22532;DHT22;11432;46.924;7.114;2023-06-22T04:14:13;18.70;99.90
22532;DHT22;11432;46.924;7.114;2023-06-22T04:16:38;18.60;99.90
22532;DHT22;11432;46.924;7.114;2023-06-22T04:19:04;18.70;99.90
22532;DHT22;11432;46.924;7.114;2023-06-22T04:21:29;18.90;99.90
22532;DHT22;11432;46.924;7.114;2023-06-22T04:23:55;18.90;99.90
22532;DHT22;11432;46.924;7.114;2023-06-22T04:26:21;18.90;99.90
22532;DHT22;11432;46.924;7.114;2023-06-22T04:28:49;18.90;99.90
22532;DHT22;11432;46.924;7.114;2023-06-22T04:31:17;19.00;99.90
22532;DHT22;11432;46.924;7.114;2023-06-22T04:33:44;19.00;99.90
22532;DHT22;11432;46.924;7.114;2023-06-22T04:36:10;18.90;99.90
22532;DHT22;11432;46.924;7.114;2023-06-22T04:38:39;18.80;99.90
22532;DHT22;11432;46.924;7.114;2023-06-22T04:41:04;18.70;99.90
22532;DHT22;11432;46.924;7.114;2023-06-22T04:43:30;18.70;99.90
22532;DHT22;11432;46.924;7.114;2023-06-22T04:45:56;18.80;99.90
22532;DHT22;11432;46.924;7.114;2023-06-22T04:48:29;19.00;99.90
22532;DHT22;11432;46.924;7.114;2023-06-22T04:50:59;19.20;99.90
22532;DHT22;11432;46.924;7.114;2023-06-22T04:53:31;19.40;99.90
22532;DHT22;11432;46.924;7.114;2023-06-22T04:55:57;19.70;99.90
22532;DHT22;11432;46.924;7.114;2023-06-22T04:58:23;19.70;99.90
22532;DHT22;11432;46.924;7.114;2023-06-22T05:00:52;19.80;99.90
22532;DHT22;11432;46.924;7.114;2023-06-22T05:03:18;19.90;99.90
22532;DHT22;11432;46.924;7.114;2023-06-22T05:05:44;19.80;99.90
22532;DHT22;11432;46.924;7.114;2023-06-22T05:08:09;19.60;99.90
22532;DHT22;11432;46.924;7.114;2023-06-22T05:10:35;19.60;99.90
22532;DHT22;11432;46.924;7.114;2023-06-22T05:13:01;19.50;99.90
22532;DHT22;11432;46.924;7.114;2023-06-22T05:15:26;19.80;99.90
22532;DHT22;11432;46.924;7.114;2023-06-22T05:17:55;20.00;99.90
22532;DHT22;11432;46.924;7.114;2023-06-22T05:20:21;20.20;99.90
22532;DHT22;11432;46.924;7.114;2023-06-22T05:22:47;20.40;99.90
22532;DHT22;11432;46.924;7.114;2023-06-22T05:25:13;20.50;99.90
22532;DHT22;11432;46.924;7.114;2023-06-22T05:27:39;20.40;99.90
22532;DHT22;11432;46.924;7.114;2023-06-22T05:30:06;20.50;99.90
22532;DHT22;11432;46.924;7.114;2023-06-22T05:32:32;20.60;99.90
22532;DHT22;11432;46.924;7.114;2023-06-22T05:34:57;20.70;99.90
22532;DHT22;11432;46.924;7.114;2023-06-22T05:37:23;20.70;99.90
22532;DHT22;11432;46.924;7.114;2023-06-22T05:39:48;20.30;99.90
22532;DHT22;11432;46.924;7.114;2023-06-22T05:42:14;20.10;99.90
22532;DHT22;11432;46.924;7.114;2023-06-22T05:44:40;20.00;99.90
22532;DHT22;11432;46.924;7.114;2023-06-22T05:47:06;20.00;99.90
22532;DHT22;11432;46.924;7.114;2023-06-22T05:49:31;19.80;99.90
22532;DHT22;11432;46.924;7.114;2023-06-22T05:51:58;19.80;99.90
22532;DHT22;11432;46.924;7.114;2023-06-22T05:54:25;19.70;99.90
22532;DHT22;11432;46.924;7.114;2023-06-22T05:56:50;19.40;99.90
22532;DHT22;11432;46.924;7.114;2023-06-22T05:59:17;19.40;99.90
22532;DHT22;11432;46.924;7.114;2023-06-22T06:01:42;19.40;99.90
22532;DHT22;11432;46.924;7.114;2023-06-22T06:04:08;19.50;99.90
22532;DHT22;11432;46.924;7.114;2023-06-22T06:06:34;19.60;99.90
22532;DHT22;11432;46.924;7.114;2023-06-22T06:09:00;19.80;99.90
22532;DHT22;11432;46.924;7.114;2023-06-22T06:11:25;19.80;99.90
22532;DHT22;11432;46.924;7.114;2023-06-22T06:13:51;19.80;99.90
22532;DHT22;11432;46.924;7.114;2023-06-22T06:16:17;19.80;99.90
22532;DHT22;11432;46.924;7.114;2023-06-22T06:18:43;20.00;99.90
22532;DHT22;11432;46.924;7.114;2023-06-22T06:21:08;20.10;99.90
22532;DHT22;11432;46.924;7.114;2023-06-22T06:23:34;20.20;99.90
22532;DHT22;11432;46.924;7.114;2023-06-22T06:26:00;20.20;99.90
22532;DHT22;11432;46.924;7.114;2023-06-22T06:28:26;20.30;99.90
22532;DHT22;11432;46.924;7.114;2023-06-22T06:30:52;20.30;99.90
22532;DHT22;11432;46.924;7.114;2023-06-22T06:33:18;20.50;99.90
22532;DHT22;11432;46.924;7.114;2023-06-22T06:35:44;20.70;99.90
22532;DHT22;11432;46.924;7.114;2023-06-22T06:38:09;20.80;99.90
22532;DHT22;11432;46.924;7.114;2023-06-22T06:40:36;20.90;99.90
22532;DHT22;11432;46.924;7.114;2023-06-22T06:43:01;21.00;99.90
22532;DHT22;11432;46.924;7.114;2023-06-22T06:45:27;21.10;99.90
22532;DHT22;11432;46.924;7.114;2023-06-22T06:47:54;21.30;99.90
22532;DHT22;11432;46.924;7.114;2023-06-22T06:50:20;21.50;99.90
22532;DHT22;11432;46.924;7.114;2023-06-22T06:52:45;21.60;99.90
22532;DHT22;11432;46.924;7.114;2023-06-22T06:55:11;21.70;99.90
22532;DHT22;11432;46.924;7.114;2023-06-22T06:57:38;21.80;99.90
22532;DHT22;11432;46.924;7.114;2023-06-22T07:00:08;21.80;99.90
22532;DHT22;11432;46.924;7.114;2023-06-22T07:02:43;21.70;99.90
22532;DHT22;11432;46.924;7.114;2023-06-22T07:05:10;21.50;99.90
22532;DHT22;11432;46.924;7.114;2023-06-22T07:07:36;21.40;99.90
22532;DHT22;11432;46.924;7.114;2023-06-22T07:10:03;21.30;99.90
22532;DHT22;11432;46.924;7.114;2023-06-22T07:12:29;21.40;99.90
22532;DHT22;11432;46.924;7.114;2023-06-22T07:15:02;21.40;99.90
22532;DHT22;11432;46.924;7.114;2023-06-22T07:17:28;21.40;99.90
22532;DHT22;11432;46.924;7.114;2023-06-22T07:19:53;21.50;99.90
22532;DHT22;11432;46.924;7.114;2023-06-22T07:22:19;21.50;99.90
22532;DHT22;11432;46.924;7.114;2023-06-22T07:24:44;21.70;99.90
22532;DHT22;11432;46.924;7.114;2023-06-22T07:27:10;21.80;99.90
22532;DHT22;11432;46.924;7.114;2023-06-22T07:29:37;21.90;99.90
22532;DHT22;11432;46.924;7.114;2023-06-22T07:32:05;22.00;99.90
22532;DHT22;11432;46.924;7.114;2023-06-22T07:34:31;22.10;99.90
22532;DHT22;11432;46.924;7.114;2023-06-22T07:36:56;22.10;99.90
22532;DHT22;11432;46.924;7.114;2023-06-22T07:39:22;22.10;99.90
22532;DHT22;11432;46.924;7.114;2023-06-22T07:41:51;22.00;99.90
22532;DHT22;11432;46.924;7.114;2023-06-22T07:44:17;22.10;99.90
22532;DHT22;11432;46.924;7.114;2023-06-22T07:46:42;22.30;99.90
22532;DHT22;11432;46.924;7.114;2023-06-22T07:49:08;22.50;99.90
22532;DHT22;11432;46.924;7.114;2023-06-22T07:51:34;22.60;99.90
22532;DHT22;11432;46.924;7.114;2023-06-22T07:54:00;22.90;99.90
22532;DHT22;11432;46.924;7.114;2023-06-22T07:56:25;23.00;99.90
22532;DHT22;11432;46.924;7.114;2023-06-22T07:58:51;23.20;99.90
22532;DHT22;11432;46.924;7.114;2023-06-22T08:01:17;23.30;99.90
22532;DHT22;11432;46.924;7.114;2023-06-22T08:03:44;23.20;99.90
22532;DHT22;11432;46.924;7.114;2023-06-22T08:06:10;23.30;99.90
22532;DHT22;11432;46.924;7.114;2023-06-22T08:08:36;23.40;99.90
22532;DHT22;11432;46.924;7.114;2023-06-22T08:11:02;23.40;99.90
22532;DHT22;11432;46.924;7.114;2023-06-22T08:13:28;23.50;99.90
22532;DHT22;11432;46.924;7.114;2023-06-22T08:15:54;23.50;99.90
22532;DHT22;11432;46.924;7.114;2023-06-22T08:18:20;23.60;99.90
22532;DHT22;11432;46.924;7.114;2023-06-22T08:20:45;23.60;99.90
22532;DHT22;11432;46.924;7.114;2023-06-22T08:23:11;23.80;99.90
22532;DHT22;11432;46.924;7.114;2023-06-22T08:25:37;24.00;99.90
22532;DHT22;11432;46.924;7.114;2023-06-22T08:28:03;23.90;99.90
22532;DHT22;11432;46.924;7.114;2023-06-22T08:30:29;23.80;99.90
22532;DHT22;11432;46.924;7.114;2023-06-22T08:32:55;23.90;99.90
22532;DHT22;11432;46.924;7.114;2023-06-22T08:35:22;24.00;99.90
22532;DHT22;11432;46.924;7.114;2023-06-22T08:37:48;24.20;99.90
22532;DHT22;11432;46.924;7.114;2023-06-22T08:40:18;24.10;99.90
22532;DHT22;11432;46.924;7.114;2023-06-22T08:42:45;24.10;99.90
22532;DHT22;11432;46.924;7.114;2023-06-22T08:45:11;24.10;99.90
22532;DHT22;11432;46.924;7.114;2023-06-22T08:47:38;24.10;99.90
22532;DHT22;11432;46.924;7.114;2023-06-22T08:50:04;24.20;99.90
22532;DHT22;11432;46.924;7.114;2023-06-22T08:52:30;24.30;99.90
22532;DHT22;11432;46.924;7.114;2023-06-22T08:54:56;24.30;99.90
22532;DHT22;11432;46.924;7.114;2023-06-22T08:57:22;24.20;99.90
22532;DHT22;11432;46.924;7.114;2023-06-22T08:59:47;24.10;99.90
22532;DHT22;11432;46.924;7.114;2023-06-22T09:02:13;24.10;99.90
22532;DHT22;11432;46.924;7.114;2023-06-22T09:04:38;24.10;99.90
22532;DHT22;11432;46.924;7.114;2023-06-22T09:07:04;24.20;99.90
22532;DHT22;11432;46.924;7.114;2023-06-22T09:09:30;24.20;99.90
22532;DHT22;11432;46.924;7.114;2023-06-22T09:11:56;24.30;99.90
22532;DHT22;11432;46.924;7.114;2023-06-22T09:14:21;24.40;99.90
22532;DHT22;11432;46.924;7.114;2023-06-22T09:16:47;24.30;99.90
22532;DHT22;11432;46.924;7.114;2023-06-22T09:19:13;24.30;99.90
22532;DHT22;11432;46.924;7.114;2023-06-22T09:21:38;24.30;99.90
22532;DHT22;11432;46.924;7.114;2023-06-22T09:24:04;24.20;99.90
22532;DHT22;11432;46.924;7.114;2023-06-22T09:26:30;24.30;99.90
22532;DHT22;11432;46.924;7.114;2023-06-22T09:28:56;24.40;99.90
22532;DHT22;11432;46.924;7.114;2023-06-22T09:31:21;24.20;99.90
22532;DHT22;11432;46.924;7.114;2023-06-22T09:33:54;24.30;99.90
22532;DHT22;11432;46.924;7.114;2023-06-22T09:36:23;24.30;99.90
22532;DHT22;11432;46.924;7.114;2023-06-22T09:38:49;24.20;99.90
22532;DHT22;11432;46.924;7.114;2023-06-22T09:41:20;24.20;99.90
22532;DHT22;11432;46.924;7.114;2023-06-22T09:43:46;24.10;99.90
22532;DHT22;11432;46.924;7.114;2023-06-22T09:46:11;23.90;99.90
22532;DHT22;11432;46.924;7.114;2023-06-22T09:48:37;23.80;99.90
22532;DHT22;11432;46.924;7.114;2023-06-22T09:51:03;23.80;99.90
22532;DHT22;11432;46.924;7.114;2023-06-22T09:53:28;23.80;99.90
22532;DHT22;11432;46.924;7.114;2023-06-22T09:55:54;23.80;99.90
22532;DHT22;11432;46.924;7.114;2023-06-22T09:58:19;23.90;99.90
22532;DHT22;11432;46.924;7.114;2023-06-22T10:00:45;23.90;99.90
22532;DHT22;11432;46.924;7.114;2023-06-22T10:03:10;23.80;99.90
22532;DHT22;11432;46.924;7.114;2023-06-22T10:05:36;23.70;99.90
22532;DHT22;11432;46.924;7.114;2023-06-22T10:08:02;23.60;99.90
22532;DHT22;11432;46.924;7.114;2023-06-22T10:10:28;23.60;99.90
22532;DHT22;11432;46.924;7.114;2023-06-22T10:12:57;23.60;99.90
22532;DHT22;11432;46.924;7.114;2023-06-22T10:15:27;23.60;99.90
22532;DHT22;11432;46.924;7.114;2023-06-22T10:17:53;23.60;99.90
22532;DHT22;11432;46.924;7.114;2023-06-22T10:20:19;23.60;99.90
22532;DHT22;11432;46.924;7.114;2023-06-22T10:22:46;23.60;99.90
22532;DHT22;11432;46.924;7.114;2023-06-22T10:25:12;23.60;99.90
22532;DHT22;11432;46.924;7.114;2023-06-22T10:27:38;23.60;99.90
22532;DHT22;11432;46.924;7.114;2023-06-22T10:30:08;23.60;99.90
22532;DHT22;11432;46.924;7.114;2023-06-22T10:32:33;23.60;99.90
22532;DHT22;11432;46.924;7.114;2023-06-22T10:34:59;23.50;99.90
22532;DHT22;11432;46.924;7.114;2023-06-22T10:37:25;23.50;99.90
22532;DHT22;11432;46.924;7.114;2023-06-22T10:39:50;23.60;99.90
22532;DHT22;11432;46.924;7.114;2023-06-22T10:42:16;23.60;99.90
22532;DHT22;11432;46.924;7.114;2023-06-22T10:44:41;23.70;99.90
22532;DHT22;11432;46.924;7.114;2023-06-22T10:47:09;23.90;99.90
22532;DHT22;11432;46.924;7.114;2023-06-22T10:49:37;23.90;99.90
22532;DHT22;11432;46.924;7.114;2023-06-22T10:52:03;24.00;99.90
22532;DHT22;11432;46.924;7.114;2023-06-22T10:54:29;24.10;99.90
22532;DHT22;11432;46.924;7.114;2023-06-22T10:56:54;24.40;99.90
22532;DHT22;11432;46.924;7.114;2023-06-22T10:59:20;24.70;99.90
22532;DHT22;11432;46.924;7.114;2023-06-22T11:01:46;24.60;99.90
22532;DHT22;11432;46.924;7.114;2023-06-22T11:04:12;24.60;99.90
22532;DHT22;11432;46.924;7.114;2023-06-22T11:06:38;24.50;99.90
22532;DHT22;11432;46.924;7.114;2023-06-22T11:09:03;24.50;99.90
22532;DHT22;11432;46.924;7.114;2023-06-22T11:11:29;24.40;99.90
22532;DHT22;11432;46.924;7.114;2023-06-22T11:13:55;24.40;99.90
22532;DHT22;11432;46.924;7.114;2023-06-22T11:16:20;24.60;99.90
22532;DHT22;11432;46.924;7.114;2023-06-22T11:18:46;24.70;99.90
22532;DHT22;11432;46.924;7.114;2023-06-22T11:21:12;25.20;99.90
22532;DHT22;11432;46.924;7.114;2023-06-22T11:23:37;25.50;99.90
22532;DHT22;11432;46.924;7.114;2023-06-22T11:26:03;25.80;99.90
22532;DHT22;11432;46.924;7.114;2023-06-22T11:28:28;25.70;99.90
22532;DHT22;11432;46.924;7.114;2023-06-22T11:30:54;25.70;99.90
22532;DHT22;11432;46.924;7.114;2023-06-22T11:33:19;25.20;99.90
22532;DHT22;11432;46.924;7.114;2023-06-22T11:35:45;25.00;99.90
22532;DHT22;11432;46.924;7.114;2023-06-22T11:38:11;25.00;99.90
22532;DHT22;11432;46.924;7.114;2023-06-22T11:40:36;25.10;99.90
22532;DHT22;11432;46.924;7.114;2023-06-22T11:43:02;25.40;99.90
22532;DHT22;11432;46.924;7.114;2023-06-22T11:45:28;25.60;99.90
22532;DHT22;11432;46.924;7.114;2023-06-22T11:47:53;25.90;99.90
22532;DHT22;11432;46.924;7.114;2023-06-22T11:50:19;26.40;99.90
22532;DHT22;11432;46.924;7.114;2023-06-22T11:52:44;26.10;99.90
22532;DHT22;11432;46.924;7.114;2023-06-22T11:55:10;25.80;99.90
22532;DHT22;11432;46.924;7.114;2023-06-22T11:57:37;25.70;99.90
22532;DHT22;11432;46.924;7.114;2023-06-22T12:00:04;25.80;99.90
22532;DHT22;11432;46.924;7.114;2023-06-22T12:02:43;25.70;99.90
22532;DHT22;11432;46.924;7.114;2023-06-22T12:05:10;25.80;99.90
22532;DHT22;11432;46.924;7.114;2023-06-22T12:07:36;26.00;99.90
22532;DHT22;11432;46.924;7.114;2023-06-22T12:10:03;25.80;99.90
22532;DHT22;11432;46.924;7.114;2023-06-22T12:12:29;25.70;99.90
22532;DHT22;11432;46.924;7.114;2023-06-22T12:14:54;25.70;99.90
22532;DHT22;11432;46.924;7.114;2023-06-22T12:17:20;25.50;99.90
22532;DHT22;11432;46.924;7.114;2023-06-22T12:19:45;25.40;99.90
22532;DHT22;11432;46.924;7.114;2023-06-22T12:22:11;25.30;99.90
22532;DHT22;11432;46.924;7.114;2023-06-22T12:24:37;25.30;99.90
22532;DHT22;11432;46.924;7.114;2023-06-22T12:27:03;25.30;99.90
22532;DHT22;11432;46.924;7.114;2023-06-22T12:29:29;25.20;99.90
22532;DHT22;11432;46.924;7.114;2023-06-22T12:31:55;25.10;99.90
22532;DHT22;11432;46.924;7.114;2023-06-22T12:34:20;24.90;99.90
22532;DHT22;11432;46.924;7.114;2023-06-22T12:36:46;24.80;99.90
22532;DHT22;11432;46.924;7.114;2023-06-22T12:39:14;24.70;99.90
22532;DHT22;11432;46.924;7.114;2023-06-22T12:41:39;24.50;99.90
22532;DHT22;11432;46.924;7.114;2023-06-22T12:44:05;24.20;99.90
22532;DHT22;11432;46.924;7.114;2023-06-22T12:46:30;24.10;99.90
22532;DHT22;11432;46.924;7.114;2023-06-22T12:49:02;24.00;99.90
22532;DHT22;11432;46.924;7.114;2023-06-22T12:51:29;23.90;99.90
22532;DHT22;11432;46.924;7.114;2023-06-22T12:53:55;23.90;99.90
22532;DHT22;11432;46.924;7.114;2023-06-22T12:56:20;24.00;99.90
22532;DHT22;11432;46.924;7.114;2023-06-22T12:58:46;24.00;99.90
22532;DHT22;11432;46.924;7.114;2023-06-22T13:01:11;23.90;99.90
22532;DHT22;11432;46.924;7.114;2023-06-22T13:03:37;23.90;99.90
22532;DHT22;11432;46.924;7.114;2023-06-22T13:06:03;23.80;99.90
22532;DHT22;11432;46.924;7.114;2023-06-22T13:08:29;23.80;99.90
22532;DHT22;11432;46.924;7.114;2023-06-22T13:10:54;23.80;99.90
22532;DHT22;11432;46.924;7.114;2023-06-22T13:13:23;23.90;99.90
22532;DHT22;11432;46.924;7.114;2023-06-22T13:15:53;24.30;99.90
22532;DHT22;11432;46.924;7.114;2023-06-22T13:18:19;24.60;99.90
22532;DHT22;11432;46.924;7.114;2023-06-22T13:20:45;24.90;99.90
22532;DHT22;11432;46.924;7.114;2023-06-22T13:23:11;25.00;99.90
22532;DHT22;11432;46.924;7.114;2023-06-22T13:25:36;24.70;99.90
22532;DHT22;11432;46.924;7.114;2023-06-22T13:28:02;24.40;99.90
22532;DHT22;11432;46.924;7.114;2023-06-22T13:30:28;24.20;99.90
22532;DHT22;11432;46.924;7.114;2023-06-22T13:32:54;24.30;99.90
22532;DHT22;11432;46.924;7.114;2023-06-22T13:35:19;24.80;99.90
22532;DHT22;11432;46.924;7.114;2023-06-22T13:37:45;25.10;99.90
22532;DHT22;11432;46.924;7.114;2023-06-22T13:40:10;25.30;99.90
22532;DHT22;11432;46.924;7.114;2023-06-22T13:42:36;25.60;99.90
22532;DHT22;11432;46.924;7.114;2023-06-22T13:45:02;26.00;99.90
22532;DHT22;11432;46.924;7.114;2023-06-22T13:47:29;27.10;99.90
22532;DHT22;11432;46.924;7.114;2023-06-22T13:49:55;27.90;99.90
22532;DHT22;11432;46.924;7.114;2023-06-22T13:52:21;27.50;99.90
22532;DHT22;11432;46.924;7.114;2023-06-22T13:54:47;28.60;99.90
22532;DHT22;11432;46.924;7.114;2023-06-22T13:57:13;28.50;99.90
22532;DHT22;11432;46.924;7.114;2023-06-22T13:59:38;27.80;99.90
22532;DHT22;11432;46.924;7.114;2023-06-22T14:02:04;27.10;99.90
22532;DHT22;11432;46.924;7.114;2023-06-22T14:04:30;26.70;99.90
22532;DHT22;11432;46.924;7.114;2023-06-22T14:06:55;26.50;99.90
22532;DHT22;11432;46.924;7.114;2023-06-22T14:09:21;26.20;99.90
22532;DHT22;11432;46.924;7.114;2023-06-22T14:11:47;26.20;99.90
22532;DHT22;11432;46.924;7.114;2023-06-22T14:14:12;26.10;99.90
22532;DHT22;11432;46.924;7.114;2023-06-22T14:16:38;26.00;99.90
22532;DHT22;11432;46.924;7.114;2023-06-22T14:19:04;25.90;99.90
22532;DHT22;11432;46.924;7.114;2023-06-22T14:21:29;25.70;99.90
22532;DHT22;11432;46.924;7.114;2023-06-22T14:23:55;25.60;99.90
22532;DHT22;11432;46.924;7.114;2023-06-22T14:26:20;25.50;99.90
22532;DHT22;11432;46.924;7.114;2023-06-22T14:28:48;25.40;99.90
22532;DHT22;11432;46.924;7.114;2023-06-22T14:31:15;25.20;99.90
22532;DHT22;11432;46.924;7.114;2023-06-22T14:33:46;25.00;99.90
22532;DHT22;11432;46.924;7.114;2023-06-22T14:36:13;24.90;99.90
22532;DHT22;11432;46.924;7.114;2023-06-22T14:38:39;24.80;99.90
22532;DHT22;11432;46.924;7.114;2023-06-22T14:41:05;24.70;99.90
22532;DHT22;11432;46.924;7.114;2023-06-22T14:43:30;24.70;99.90
22532;DHT22;11432;46.924;7.114;2023-06-22T14:46:56;24.70;99.90
22532;DHT22;11432;46.924;7.114;2023-06-22T14:49:22;24.60;99.90
22532;DHT22;11432;46.924;7.114;2023-06-22T14:51:48;24.60;99.90
22532;DHT22;11432;46.924;7.114;2023-06-22T14:54:14;24.70;99.90
22532;DHT22;11432;46.924;7.114;2023-06-22T14:59:07;25.00;99.90
22532;DHT22;11432;46.924;7.114;2023-06-22T15:01:34;26.00;99.90
22532;DHT22;11432;46.924;7.114;2023-06-22T15:03:59;26.90;99.90
22532;DHT22;11432;46.924;7.114;2023-06-22T15:06:25;28.30;99.90
22532;DHT22;11432;46.924;7.114;2023-06-22T15:08:52;29.80;99.90
22532;DHT22;11432;46.924;7.114;2023-06-22T15:11:18;30.30;99.90
22532;DHT22;11432;46.924;7.114;2023-06-22T15:13:44;30.80;99.90
22532;DHT22;11432;46.924;7.114;2023-06-22T15:16:10;29.80;99.90
22532;DHT22;11432;46.924;7.114;2023-06-22T15:18:36;29.10;99.90
22532;DHT22;11432;46.924;7.114;2023-06-22T15:21:02;28.50;99.90
22532;DHT22;11432;46.924;7.114;2023-06-22T15:23:29;28.70;99.90
22532;DHT22;11432;46.924;7.114;2023-06-22T15:25:55;28.70;99.90
22532;DHT22;11432;46.924;7.114;2023-06-22T15:28:21;28.40;99.90
22532;DHT22;11432;46.924;7.114;2023-06-22T15:30:48;28.50;99.90
22532;DHT22;11432;46.924;7.114;2023-06-22T15:33:14;28.50;99.90
22532;DHT22;11432;46.924;7.114;2023-06-22T15:35:40;29.30;99.90